sensor_id;sensor_type;location;lat;lon;timestamp;temperature;humidity
31731;DHT22;18310;55.586;12.286;2023-01-28T00:00:08;-0.10;68.30
31731;DHT22;18310;55.586;12.286;2023-01-28T00:03:12;-0.10;68.30
31731;DHT22;18310;55.586;12.286;2023-01-28T00:06:17;0.30;68.60
31731;DHT22;18310;55.586;12.286;2023-01-28T00:09:20;-0.30;69.40
31731;DHT22;18310;55.586;12.286;2023-01-28T00:12:24;-0.10;68.40
31731;DHT22;18310;55.586;12.286;2023-01-28T00:27:44;0.00;68.60
31731;DHT22;18310;55.586;12.286;2023-01-28T00:43:04;-0.20;68.30
31731;DHT22;18310;55.586;12.286;2023-01-28T00:46:08;-0.80;68.10
31731;DHT22;18310;55.586;12.286;2023-01-28T00:49:12;-0.20;69.20
31731;DHT22;18310;55.586;12.286;2023-01-28T00:58:25;-0.40;68.50
31731;DHT22;18310;55.586;12.286;2023-01-28T01:01:28;-3.60;67.60
31731;DHT22;18310;55.586;12.286;2023-01-28T01:10:43;-3.20;67.20
31731;DHT22;18310;55.586;12.286;2023-01-28T01:13:52;-0.20;68.90
31731;DHT22;18310;55.586;12.286;2023-01-28T01:23:04;-0.20;68.90
31731;DHT22;18310;55.586;12.286;2023-01-28T01:29:14;-2.10;67.90
31731;DHT22;18310;55.586;12.286;2023-01-28T01:32:17;-2.90;67.80
31731;DHT22;18310;55.586;12.286;2023-01-28T01:35:21;0.00;69.80
31731;DHT22;18310;55.586;12.286;2023-01-28T01:41:28;-0.20;69.10
31731;DHT22;18310;55.586;12.286;2023-01-28T01:44:55;-0.20;70.20
31731;DHT22;18310;55.586;12.286;2023-01-28T01:48:02;-0.20;70.00
31731;DHT22;18310;55.586;12.286;2023-01-28T01:51:13;-0.20;69.70
31731;DHT22;18310;55.586;12.286;2023-01-28T01:54:20;-3.40;69.00
31731;DHT22;18310;55.586;12.286;2023-01-28T01:57:31;0.10;70.30
31731;DHT22;18310;55.586;12.286;2023-01-28T02:00:38;-0.10;69.90
31731;DHT22;18310;55.586;12.286;2023-01-28T02:03:47;-0.10;70.40
31731;DHT22;18310;55.586;12.286;2023-01-28T02:06:56;0.30;70.90
31731;DHT22;18310;55.586;12.286;2023-01-28T02:10:03;-0.10;70.60
31731;DHT22;18310;55.586;12.286;2023-01-28T02:13:08;0.00;71.10
31731;DHT22;18310;55.586;12.286;2023-01-28T02:16:13;0.00;70.60
31731;DHT22;18310;55.586;12.286;2023-01-28T02:19:18;-2.10;69.50
31731;DHT22;18310;55.586;12.286;2023-01-28T02:22:46;0.00;70.70
31731;DHT22;18310;55.586;12.286;2023-01-28T02:26:33;0.20;71.30
31731;DHT22;18310;55.586;12.286;2023-01-28T02:29:56;0.10;70.00
31731;DHT22;18310;55.586;12.286;2023-01-28T02:33:09;0.10;69.90
31731;DHT22;18310;55.586;12.286;2023-01-28T02:39:30;0.20;70.40
31731;DHT22;18310;55.586;12.286;2023-01-28T02:42:38;0.20;69.70
31731;DHT22;18310;55.586;12.286;2023-01-28T02:45:45;0.10;70.30
31731;DHT22;18310;55.586;12.286;2023-01-28T02:49:04;0.10;69.60
31731;DHT22;18310;55.586;12.286;2023-01-28T02:52:28;0.10;69.70
31731;DHT22;18310;55.586;12.286;2023-01-28T02:56:04;1.30;70.40
31731;DHT22;18310;55.586;12.286;2023-01-28T02:59:22;1.70;70.60
31731;DHT22;18310;55.586;12.286;2023-01-28T03:02:43;0.10;69.60
31731;DHT22;18310;55.586;12.286;2023-01-28T03:05:58;0.00;70.20
31731;DHT22;18310;55.586;12.286;2023-01-28T03:09:10;0.00;70.00
31731;DHT22;18310;55.586;12.286;2023-01-28T03:12:27;4.00;72.80
31731;DHT22;18310;55.586;12.286;2023-01-28T03:15:51;-0.20;69.40
31731;DHT22;18310;55.586;12.286;2023-01-28T03:22:40;1.10;69.20
31731;DHT22;18310;55.586;12.286;2023-01-28T03:26:09;0.00;69.10
31731;DHT22;18310;55.586;12.286;2023-01-28T03:29:34;0.00;69.30
31731;DHT22;18310;55.586;12.286;2023-01-28T03:36:21;0.00;69.30
31731;DHT22;18310;55.586;12.286;2023-01-28T03:48:53;0.10;70.70
31731;DHT22;18310;55.586;12.286;2023-01-28T03:51:57;2.40;71.90
31731;DHT22;18310;55.586;12.286;2023-01-28T03:58:15;0.00;69.80
31731;DHT22;18310;55.586;12.286;2023-01-28T04:01:18;-0.10;70.50
31731;DHT22;18310;55.586;12.286;2023-01-28T04:04:23;-2.80;69.20
31731;DHT22;18310;55.586;12.286;2023-01-28T04:07:27;-0.10;69.60
31731;DHT22;18310;55.586;12.286;2023-01-28T04:10:31;0.00;70.20
31731;DHT22;18310;55.586;12.286;2023-01-28T04:13:34;-0.20;69.90
31731;DHT22;18310;55.586;12.286;2023-01-28T04:16:38;1.60;71.00
31731;DHT22;18310;55.586;12.286;2023-01-28T04:22:46;-0.10;69.30
31731;DHT22;18310;55.586;12.286;2023-01-28T04:25:50;-3.10;67.70
31731;DHT22;18310;55.586;12.286;2023-01-28T04:38:06;-0.20;69.70
31731;DHT22;18310;55.586;12.286;2023-01-28T04:47:17;-0.50;70.40
31731;DHT22;18310;55.586;12.286;2023-01-28T04:53:26;-0.20;69.90
31731;DHT22;18310;55.586;12.286;2023-01-28T05:08:45;-0.10;70.70
31731;DHT22;18310;55.586;12.286;2023-01-28T05:11:48;0.00;71.60
31731;DHT22;18310;55.586;12.286;2023-01-28T05:24:03;0.10;70.90
31731;DHT22;18310;55.586;12.286;2023-01-28T05:27:08;0.20;71.10
31731;DHT22;18310;55.586;12.286;2023-01-28T05:54:44;0.50;71.80
31731;DHT22;18310;55.586;12.286;2023-01-28T06:00:53;0.60;71.80
31731;DHT22;18310;55.586;12.286;2023-01-28T06:10:07;-1.40;70.60
31731;DHT22;18310;55.586;12.286;2023-01-28T06:16:15;1.50;72.80
31731;DHT22;18310;55.586;12.286;2023-01-28T06:19:20;0.80;73.30
31731;DHT22;18310;55.586;12.286;2023-01-28T06:22:23;0.70;72.10
31731;DHT22;18310;55.586;12.286;2023-01-28T06:28:32;-1.70;70.60
31731;DHT22;18310;55.586;12.286;2023-01-28T06:31:35;0.70;72.00
31731;DHT22;18310;55.586;12.286;2023-01-28T06:37:42;1.30;71.60
31731;DHT22;18310;55.586;12.286;2023-01-28T06:40:51;0.70;71.10
31731;DHT22;18310;55.586;12.286;2023-01-28T06:43:56;0.70;71.60
31731;DHT22;18310;55.586;12.286;2023-01-28T06:56:11;-2.50;69.90
31731;DHT22;18310;55.586;12.286;2023-01-28T07:05:23;-1.40;70.50
31731;DHT22;18310;55.586;12.286;2023-01-28T07:11:33;0.80;72.10
31731;DHT22;18310;55.586;12.286;2023-01-28T07:14:37;1.20;73.10
31731;DHT22;18310;55.586;12.286;2023-01-28T07:23:47;1.10;73.50
31731;DHT22;18310;55.586;12.286;2023-01-28T07:26:52;1.30;73.00
31731;DHT22;18310;55.586;12.286;2023-01-28T07:29:56;1.30;74.10
31731;DHT22;18310;55.586;12.286;2023-01-28T07:42:11;2.00;73.80
31731;DHT22;18310;55.586;12.286;2023-01-28T07:45:15;3.80;74.80
31731;DHT22;18310;55.586;12.286;2023-01-28T07:48:18;2.50;74.60
31731;DHT22;18310;55.586;12.286;2023-01-28T07:57:30;0.30;72.20
31731;DHT22;18310;55.586;12.286;2023-01-28T08:00:36;2.60;73.90
31731;DHT22;18310;55.586;12.286;2023-01-28T08:03:40;2.70;73.80
31731;DHT22;18310;55.586;12.286;2023-01-28T08:06:43;0.50;72.40
31731;DHT22;18310;55.586;12.286;2023-01-28T08:09:46;2.80;73.60
31731;DHT22;18310;55.586;12.286;2023-01-28T08:12:53;3.00;73.60
31731;DHT22;18310;55.586;12.286;2023-01-28T08:15:56;3.10;73.50
31731;DHT22;18310;55.586;12.286;2023-01-28T08:19:00;3.20;73.30
31731;DHT22;18310;55.586;12.286;2023-01-28T08:22:04;3.20;73.20
31731;DHT22;18310;55.586;12.286;2023-01-28T08:25:07;3.30;73.10
31731;DHT22;18310;55.586;12.286;2023-01-28T08:28:13;1.30;71.90
31731;DHT22;18310;55.586;12.286;2023-01-28T08:31:18;2.90;72.80
31731;DHT22;18310;55.586;12.286;2023-01-28T08:34:21;3.40;73.00
31731;DHT22;18310;55.586;12.286;2023-01-28T08:37:26;3.50;73.00
31731;DHT22;18310;55.586;12.286;2023-01-28T08:40:30;5.30;73.90
31731;DHT22;18310;55.586;12.286;2023-01-28T08:43:35;3.60;72.80
31731;DHT22;18310;55.586;12.286;2023-01-28T08:46:38;4.40;73.80
31731;DHT22;18310;55.586;12.286;2023-01-28T08:49:41;2.80;71.80
31731;DHT22;18310;55.586;12.286;2023-01-28T08:52:46;3.70;72.70
31731;DHT22;18310;55.586;12.286;2023-01-28T08:55:53;3.80;71.90
31731;DHT22;18310;55.586;12.286;2023-01-28T08:58:58;3.90;72.40
31731;DHT22;18310;55.586;12.286;2023-01-28T09:02:02;4.00;72.50
31731;DHT22;18310;55.586;12.286;2023-01-28T09:05:07;5.50;73.30
31731;DHT22;18310;55.586;12.286;2023-01-28T09:08:13;4.60;72.70
31731;DHT22;18310;55.586;12.286;2023-01-28T09:11:17;4.70;72.80
31731;DHT22;18310;55.586;12.286;2023-01-28T09:14:21;4.10;72.30
31731;DHT22;18310;55.586;12.286;2023-01-28T09:17:24;4.60;72.40
31731;DHT22;18310;55.586;12.286;2023-01-28T09:20:30;4.10;71.90
31731;DHT22;18310;55.586;12.286;2023-01-28T09:23:34;4.10;71.40
31731;DHT22;18310;55.586;12.286;2023-01-28T09:26:38;5.80;73.00
31731;DHT22;18310;55.586;12.286;2023-01-28T09:29:42;4.20;71.20
31731;DHT22;18310;55.586;12.286;2023-01-28T09:32:49;4.20;71.40
31731;DHT22;18310;55.586;12.286;2023-01-28T09:45:26;4.50;70.60
31731;DHT22;18310;55.586;12.286;2023-01-28T09:48:39;4.40;71.10
31731;DHT22;18310;55.586;12.286;2023-01-28T09:51:48;4.50;72.20
31731;DHT22;18310;55.586;12.286;2023-01-28T09:55:00;4.50;71.70
31731;DHT22;18310;55.586;12.286;2023-01-28T09:58:10;6.40;72.70
31731;DHT22;18310;55.586;12.286;2023-01-28T10:01:34;4.60;71.50
31731;DHT22;18310;55.586;12.286;2023-01-28T10:04:51;4.60;71.40
31731;DHT22;18310;55.586;12.286;2023-01-28T10:08:06;4.70;71.30
31731;DHT22;18310;55.586;12.286;2023-01-28T10:11:28;4.70;71.10
31731;DHT22;18310;55.586;12.286;2023-01-28T10:14:53;4.80;71.00
31731;DHT22;18310;55.586;12.286;2023-01-28T10:18:11;6.20;71.70
31731;DHT22;18310;55.586;12.286;2023-01-28T10:21:23;4.80;71.00
31731;DHT22;18310;55.586;12.286;2023-01-28T10:24:33;4.80;71.00
31731;DHT22;18310;55.586;12.286;2023-01-28T10:27:37;4.80;70.90
31731;DHT22;18310;55.586;12.286;2023-01-28T10:30:42;4.90;71.00
31731;DHT22;18310;55.586;12.286;2023-01-28T10:33:48;4.80;70.90
31731;DHT22;18310;55.586;12.286;2023-01-28T10:36:52;6.20;71.70
31731;DHT22;18310;55.586;12.286;2023-01-28T10:39:59;4.80;71.00
31731;DHT22;18310;55.586;12.286;2023-01-28T10:43:03;5.00;71.20
31731;DHT22;18310;55.586;12.286;2023-01-28T10:46:13;5.00;71.40
31731;DHT22;18310;55.586;12.286;2023-01-28T10:49:25;5.00;71.60
31731;DHT22;18310;55.586;12.286;2023-01-28T10:52:32;5.10;71.50
31731;DHT22;18310;55.586;12.286;2023-01-28T10:55:47;5.30;71.60
31731;DHT22;18310;55.586;12.286;2023-01-28T10:58:58;5.40;71.30
31731;DHT22;18310;55.586;12.286;2023-01-28T11:02:18;7.20;72.40
31731;DHT22;18310;55.586;12.286;2023-01-28T11:05:28;6.90;72.00
31731;DHT22;18310;55.586;12.286;2023-01-28T11:08:42;5.40;70.80
31731;DHT22;18310;55.586;12.286;2023-01-28T11:11:46;6.60;71.20
31731;DHT22;18310;55.586;12.286;2023-01-28T11:14:50;5.10;70.20
31731;DHT22;18310;55.586;12.286;2023-01-28T11:17:56;5.80;70.20
31731;DHT22;18310;55.586;12.286;2023-01-28T11:21:06;5.80;70.10
31731;DHT22;18310;55.586;12.286;2023-01-28T11:24:21;5.00;69.60
31731;DHT22;18310;55.586;12.286;2023-01-28T11:27:29;5.80;70.00
31731;DHT22;18310;55.586;12.286;2023-01-28T11:30:37;6.40;70.20
31731;DHT22;18310;55.586;12.286;2023-01-28T11:33:44;5.90;70.10
31731;DHT22;18310;55.586;12.286;2023-01-28T11:36:54;5.90;70.00
31731;DHT22;18310;55.586;12.286;2023-01-28T11:40:15;5.90;70.00
31731;DHT22;18310;55.586;12.286;2023-01-28T11:43:24;6.00;69.90
31731;DHT22;18310;55.586;12.286;2023-01-28T11:46:44;6.00;70.10
31731;DHT22;18310;55.586;12.286;2023-01-28T11:50:10;6.00;69.60
31731;DHT22;18310;55.586;12.286;2023-01-28T11:53:50;6.10;69.70
31731;DHT22;18310;55.586;12.286;2023-01-28T11:57:12;6.10;69.60
31731;DHT22;18310;55.586;12.286;2023-01-28T12:00:37;7.50;70.60
31731;DHT22;18310;55.586;12.286;2023-01-28T12:04:01;8.10;70.80
31731;DHT22;18310;55.586;12.286;2023-01-28T12:07:28;5.90;69.50
31731;DHT22;18310;55.586;12.286;2023-01-28T12:10:47;7.70;70.40
31731;DHT22;18310;55.586;12.286;2023-01-28T12:14:07;8.10;70.60
31731;DHT22;18310;55.586;12.286;2023-01-28T12:17:30;6.50;69.40
31731;DHT22;18310;55.586;12.286;2023-01-28T12:20:49;5.70;68.80
31731;DHT22;18310;55.586;12.286;2023-01-28T12:24:07;6.60;69.30
31731;DHT22;18310;55.586;12.286;2023-01-28T12:27:33;8.40;70.00
31731;DHT22;18310;55.586;12.286;2023-01-28T12:31:03;6.70;68.80
31731;DHT22;18310;55.586;12.286;2023-01-28T12:34:38;6.70;69.40
31731;DHT22;18310;55.586;12.286;2023-01-28T12:37:58;6.80;69.40
31731;DHT22;18310;55.586;12.286;2023-01-28T12:41:09;5.90;68.40
31731;DHT22;18310;55.586;12.286;2023-01-28T12:44:22;6.80;68.10
31731;DHT22;18310;55.586;12.286;2023-01-28T12:47:34;6.80;68.50
31731;DHT22;18310;55.586;12.286;2023-01-28T12:50:43;6.80;68.50
31731;DHT22;18310;55.586;12.286;2023-01-28T12:53:53;6.80;68.60
31731;DHT22;18310;55.586;12.286;2023-01-28T12:57:02;8.40;69.40
31731;DHT22;18310;55.586;12.286;2023-01-28T13:00:18;6.70;68.50
31731;DHT22;18310;55.586;12.286;2023-01-28T13:03:33;6.70;68.30
31731;DHT22;18310;55.586;12.286;2023-01-28T13:06:45;6.60;68.30
31731;DHT22;18310;55.586;12.286;2023-01-28T13:10:01;6.60;68.40
31731;DHT22;18310;55.586;12.286;2023-01-28T13:13:14;6.60;68.60
31731;DHT22;18310;55.586;12.286;2023-01-28T13:16:21;6.60;68.80
31731;DHT22;18310;55.586;12.286;2023-01-28T13:19:39;6.10;68.70
31731;DHT22;18310;55.586;12.286;2023-01-28T13:22:44;6.50;69.00
31731;DHT22;18310;55.586;12.286;2023-01-28T13:25:47;8.70;70.30
31731;DHT22;18310;55.586;12.286;2023-01-28T13:28:53;8.30;70.30
31731;DHT22;18310;55.586;12.286;2023-01-28T13:32:32;7.20;69.70
31731;DHT22;18310;55.586;12.286;2023-01-28T13:35:38;6.50;69.40
31731;DHT22;18310;55.586;12.286;2023-01-28T13:38:45;6.60;69.60
31731;DHT22;18310;55.586;12.286;2023-01-28T13:41:50;6.60;69.70
31731;DHT22;18310;55.586;12.286;2023-01-28T13:44:55;6.60;69.70
31731;DHT22;18310;55.586;12.286;2023-01-28T13:48:22;4.60;68.00
31731;DHT22;18310;55.586;12.286;2023-01-28T13:51:33;6.60;69.60
31731;DHT22;18310;55.586;12.286;2023-01-28T13:54:42;6.60;69.50
31731;DHT22;18310;55.586;12.286;2023-01-28T14:02:16;5.10;68.90
31731;DHT22;18310;55.586;12.286;2023-01-28T14:09:44;6.70;69.60
31731;DHT22;18310;55.586;12.286;2023-01-28T14:13:26;6.70;69.70
31731;DHT22;18310;55.586;12.286;2023-01-28T14:16:40;6.70;69.90
31731;DHT22;18310;55.586;12.286;2023-01-28T14:19:53;6.70;69.90
31731;DHT22;18310;55.586;12.286;2023-01-28T14:23:01;5.50;68.80
31731;DHT22;18310;55.586;12.286;2023-01-28T14:26:22;6.70;70.10
31731;DHT22;18310;55.586;12.286;2023-01-28T14:29:44;6.70;70.90
31731;DHT22;18310;55.586;12.286;2023-01-28T14:33:08;6.70;70.40
31731;DHT22;18310;55.586;12.286;2023-01-28T14:36:13;6.70;70.40
31731;DHT22;18310;55.586;12.286;2023-01-28T14:39:21;6.70;70.40
31731;DHT22;18310;55.586;12.286;2023-01-28T14:42:30;6.70;70.50
31731;DHT22;18310;55.586;12.286;2023-01-28T14:46:00;6.70;70.50
31731;DHT22;18310;55.586;12.286;2023-01-28T14:49:24;6.60;71.00
31731;DHT22;18310;55.586;12.286;2023-01-28T14:52:57;6.60;71.10
31731;DHT22;18310;55.586;12.286;2023-01-28T14:56:27;6.60;71.40
31731;DHT22;18310;55.586;12.286;2023-01-28T14:59:41;6.60;71.30
31731;DHT22;18310;55.586;12.286;2023-01-28T15:02:47;6.60;71.30
31731;DHT22;18310;55.586;12.286;2023-01-28T15:06:02;6.50;71.20
31731;DHT22;18310;55.586;12.286;2023-01-28T15:09:08;6.50;71.60
31731;DHT22;18310;55.586;12.286;2023-01-28T15:12:17;6.50;71.40
31731;DHT22;18310;55.586;12.286;2023-01-28T15:15:28;6.50;71.50
31731;DHT22;18310;55.586;12.286;2023-01-28T15:18:40;6.50;71.70
31731;DHT22;18310;55.586;12.286;2023-01-28T15:21:46;7.50;72.40
31731;DHT22;18310;55.586;12.286;2023-01-28T15:24:56;5.50;71.30
31731;DHT22;18310;55.586;12.286;2023-01-28T15:28:01;7.00;72.20
31731;DHT22;18310;55.586;12.286;2023-01-28T15:31:18;6.50;71.90
31731;DHT22;18310;55.586;12.286;2023-01-28T15:34:23;6.40;72.30
31731;DHT22;18310;55.586;12.286;2023-01-28T15:37:31;6.50;72.20
31731;DHT22;18310;55.586;12.286;2023-01-28T15:40:40;7.00;72.60
31731;DHT22;18310;55.586;12.286;2023-01-28T15:43:48;7.40;73.20
31731;DHT22;18310;55.586;12.286;2023-01-28T15:46:54;6.40;72.60
31731;DHT22;18310;55.586;12.286;2023-01-28T15:50:02;8.60;73.50
31731;DHT22;18310;55.586;12.286;2023-01-28T15:53:08;6.30;72.70
31731;DHT22;18310;55.586;12.286;2023-01-28T15:56:13;6.40;72.70
31731;DHT22;18310;55.586;12.286;2023-01-28T15:59:26;6.30;72.50
31731;DHT22;18310;55.586;12.286;2023-01-28T16:02:32;7.60;74.10
31731;DHT22;18310;55.586;12.286;2023-01-28T16:05:37;4.00;71.50
31731;DHT22;18310;55.586;12.286;2023-01-28T16:08:49;5.30;72.70
31731;DHT22;18310;55.586;12.286;2023-01-28T16:12:01;6.40;73.50
31731;DHT22;18310;55.586;12.286;2023-01-28T16:15:15;6.30;73.60
31731;DHT22;18310;55.586;12.286;2023-01-28T16:18:29;6.00;73.60
31731;DHT22;18310;55.586;12.286;2023-01-28T16:21:43;6.40;74.20
31731;DHT22;18310;55.586;12.286;2023-01-28T16:24:51;8.20;74.80
31731;DHT22;18310;55.586;12.286;2023-01-28T16:27:56;8.90;75.70
31731;DHT22;18310;55.586;12.286;2023-01-28T16:31:01;7.30;74.40
31731;DHT22;18310;55.586;12.286;2023-01-28T16:40:12;6.40;73.30
31731;DHT22;18310;55.586;12.286;2023-01-28T16:46:26;6.40;73.20
31731;DHT22;18310;55.586;12.286;2023-01-28T16:49:31;8.10;74.90
31731;DHT22;18310;55.586;12.286;2023-01-28T16:52:34;6.40;74.00
31731;DHT22;18310;55.586;12.286;2023-01-28T16:55:39;6.40;73.70
31731;DHT22;18310;55.586;12.286;2023-01-28T17:01:49;5.90;75.00
31731;DHT22;18310;55.586;12.286;2023-01-28T17:04:52;6.50;74.50
31731;DHT22;18310;55.586;12.286;2023-01-28T17:07:57;6.50;74.00
31731;DHT22;18310;55.586;12.286;2023-01-28T17:11:00;6.50;74.60
31731;DHT22;18310;55.586;12.286;2023-01-28T17:14:03;8.60;75.80
31731;DHT22;18310;55.586;12.286;2023-01-28T17:17:09;6.60;74.80
31731;DHT22;18310;55.586;12.286;2023-01-28T17:20:12;6.60;74.80
31731;DHT22;18310;55.586;12.286;2023-01-28T17:23:16;6.60;74.70
31731;DHT22;18310;55.586;12.286;2023-01-28T17:26:23;6.60;74.70
31731;DHT22;18310;55.586;12.286;2023-01-28T17:29:27;5.00;74.40
31731;DHT22;18310;55.586;12.286;2023-01-28T17:32:31;6.70;74.40
31731;DHT22;18310;55.586;12.286;2023-01-28T17:44:45;6.80;74.50
31731;DHT22;18310;55.586;12.286;2023-01-28T17:47:50;6.70;74.50
31731;DHT22;18310;55.586;12.286;2023-01-28T17:50:55;7.40;75.50
31731;DHT22;18310;55.586;12.286;2023-01-28T17:53:58;6.70;75.10
31731;DHT22;18310;55.586;12.286;2023-01-28T17:57:02;6.30;75.00
31731;DHT22;18310;55.586;12.286;2023-01-28T18:00:07;7.00;75.00
31731;DHT22;18310;55.586;12.286;2023-01-28T18:03:14;6.70;74.90
31731;DHT22;18310;55.586;12.286;2023-01-28T18:18:33;6.90;74.20
31731;DHT22;18310;55.586;12.286;2023-01-28T18:21:38;7.60;75.90
31731;DHT22;18310;55.586;12.286;2023-01-28T18:24:54;6.80;75.60
31731;DHT22;18310;55.586;12.286;2023-01-28T18:27:57;6.80;75.10
31731;DHT22;18310;55.586;12.286;2023-01-28T18:31:04;6.90;75.70
31731;DHT22;18310;55.586;12.286;2023-01-28T18:34:09;6.90;75.90
31731;DHT22;18310;55.586;12.286;2023-01-28T18:37:12;7.40;76.10
31731;DHT22;18310;55.586;12.286;2023-01-28T18:40:15;8.00;76.40
31731;DHT22;18310;55.586;12.286;2023-01-28T18:43:19;6.90;75.90
31731;DHT22;18310;55.586;12.286;2023-01-28T18:46:23;8.20;77.60
31731;DHT22;18310;55.586;12.286;2023-01-28T18:49:27;7.00;75.30
31731;DHT22;18310;55.586;12.286;2023-01-28T18:52:30;8.70;76.80
31731;DHT22;18310;55.586;12.286;2023-01-28T18:55:33;7.00;75.80
31731;DHT22;18310;55.586;12.286;2023-01-28T19:01:41;6.90;75.40
31731;DHT22;18310;55.586;12.286;2023-01-28T19:04:46;4.40;74.40
31731;DHT22;18310;55.586;12.286;2023-01-28T19:07:49;7.10;76.20
31731;DHT22;18310;55.586;12.286;2023-01-28T19:10:55;7.30;76.10
31731;DHT22;18310;55.586;12.286;2023-01-28T19:13:58;9.90;77.70
31731;DHT22;18310;55.586;12.286;2023-01-28T19:20:09;7.30;75.40
31731;DHT22;18310;55.586;12.286;2023-01-28T19:23:14;7.10;75.80
31731;DHT22;18310;55.586;12.286;2023-01-28T19:26:17;7.20;75.90
31731;DHT22;18310;55.586;12.286;2023-01-28T19:29:23;7.20;75.90
31731;DHT22;18310;55.586;12.286;2023-01-28T19:35:34;6.80;75.10
31731;DHT22;18310;55.586;12.286;2023-01-28T19:38:38;7.30;76.10
31731;DHT22;18310;55.586;12.286;2023-01-28T19:50:54;7.50;73.90
31731;DHT22;18310;55.586;12.286;2023-01-28T20:06:15;7.40;74.70
31731;DHT22;18310;55.586;12.286;2023-01-28T20:36:53;7.10;74.60
31731;DHT22;18310;55.586;12.286;2023-01-28T20:39:56;7.10;75.10
31731;DHT22;18310;55.586;12.286;2023-01-28T21:07:39;7.10;75.70
31731;DHT22;18310;55.586;12.286;2023-01-28T21:10:43;7.00;76.10
31731;DHT22;18310;55.586;12.286;2023-01-28T21:13:47;7.10;76.20
31731;DHT22;18310;55.586;12.286;2023-01-28T21:16:50;7.10;76.20
31731;DHT22;18310;55.586;12.286;2023-01-28T21:22:59;7.00;75.60
31731;DHT22;18310;55.586;12.286;2023-01-28T21:26:04;7.00;76.20
31731;DHT22;18310;55.586;12.286;2023-01-28T21:38:21;7.20;76.00
31731;DHT22;18310;55.586;12.286;2023-01-28T21:41:24;7.20;75.60
31731;DHT22;18310;55.586;12.286;2023-01-28T21:44:27;7.10;76.30
31731;DHT22;18310;55.586;12.286;2023-01-28T21:47:30;7.10;76.60
31731;DHT22;18310;55.586;12.286;2023-01-28T21:50:33;7.10;76.30
31731;DHT22;18310;55.586;12.286;2023-01-28T21:53:58;7.10;76.70
31731;DHT22;18310;55.586;12.286;2023-01-28T21:57:01;7.30;76.80
31731;DHT22;18310;55.586;12.286;2023-01-28T22:00:05;7.10;76.50
31731;DHT22;18310;55.586;12.286;2023-01-28T22:03:10;7.10;76.50
31731;DHT22;18310;55.586;12.286;2023-01-28T22:06:13;5.00;75.20
31731;DHT22;18310;55.586;12.286;2023-01-28T22:09:18;7.20;76.40
31731;DHT22;18310;55.586;12.286;2023-01-28T22:12:21;7.20;76.30
31731;DHT22;18310;55.586;12.286;2023-01-28T22:15:24;7.80;76.60
31731;DHT22;18310;55.586;12.286;2023-01-28T22:18:28;7.20;76.30
31731;DHT22;18310;55.586;12.286;2023-01-28T22:21:32;7.20;76.30
31731;DHT22;18310;55.586;12.286;2023-01-28T22:24:43;7.20;76.40
31731;DHT22;18310;55.586;12.286;2023-01-28T22:27:47;7.20;76.40
31731;DHT22;18310;55.586;12.286;2023-01-28T22:30:50;8.40;77.10
31731;DHT22;18310;55.586;12.286;2023-01-28T22:33:54;7.20;77.00
31731;DHT22;18310;55.586;12.286;2023-01-28T22:36:57;7.20;77.10
31731;DHT22;18310;55.586;12.286;2023-01-28T22:40:02;7.20;76.30
31731;DHT22;18310;55.586;12.286;2023-01-28T22:43:05;8.50;77.20
31731;DHT22;18310;55.586;12.286;2023-01-28T22:46:09;9.10;77.50
31731;DHT22;18310;55.586;12.286;2023-01-28T22:49:12;7.20;76.40
31731;DHT22;18310;55.586;12.286;2023-01-28T22:52:16;7.20;76.30
31731;DHT22;18310;55.586;12.286;2023-01-28T22:55:21;9.20;77.50
31731;DHT22;18310;55.586;12.286;2023-01-28T22:58:24;7.20;76.30
31731;DHT22;18310;55.586;12.286;2023-01-28T23:01:30;8.00;76.70
31731;DHT22;18310;55.586;12.286;2023-01-28T23:04:36;7.10;76.50
31731;DHT22;18310;55.586;12.286;2023-01-28T23:07:41;7.10;75.80
31731;DHT22;18310;55.586;12.286;2023-01-28T23:10:47;7.10;76.10
31731;DHT22;18310;55.586;12.286;2023-01-28T23:13:54;7.20;76.30
31731;DHT22;18310;55.586;12.286;2023-01-28T23:17:16;7.20;76.30
31731;DHT22;18310;55.586;12.286;2023-01-28T23:20:37;7.00;76.20
31731;DHT22;18310;55.586;12.286;2023-01-28T23:23:58;7.00;76.50
31731;DHT22;18310;55.586;12.286;2023-01-28T23:27:22;7.00;76.50
31731;DHT22;18310;55.586;12.286;2023-01-28T23:30:26;7.00;76.70
31731;DHT22;18310;55.586;12.286;2023-01-28T23:33:29;7.00;76.50
31731;DHT22;18310;55.586;12.286;2023-01-28T23:36:32;9.20;77.80
31731;DHT22;18310;55.586;12.286;2023-01-28T23:39:36;8.50;77.40
31731;DHT22;18310;55.586;12.286;2023-01-28T23:42:40;7.10;76.70
31731;DHT22;18310;55.586;12.286;2023-01-28T23:45:45;7.10;76.60
31731;DHT22;18310;55.586;12.286;2023-01-28T23:48:48;7.10;76.50
31731;DHT22;18310;55.586;12.286;2023-01-28T23:51:52;7.10;76.40
31731;DHT22;18310;55.586;12.286;2023-01-28T23:54:55;6.70;76.00
31731;DHT22;18310;55.586;12.286;2023-01-28T23:58:00;7.00;75.80
